Time;durP1;ratioP1;P1;durP2;ratioP2;P2;SDS_P1;SDS_P2;PMS_P1;PMS_P2;Temp;Humidity;BMP_temperature;BMP_pressure;BME280_temperature;BME280_humidity;BME280_pressure;Samples;Min_cycle;Max_cycle;Signal;HPM_P1;HPM_P2
2021/06/23 00:00:50;;;;;;;14.38;7.67;;;;;;;21.02;100.00;100970.95;1702834;84;20892;-76
2021/06/23 00:03:17;;;;;;;13.40;6.78;;;;;;;20.99;100.00;100969.47;1702823;84;21538;-76
2021/06/23 00:05:43;;;;;;;15.78;7.55;;;;;;;20.98;100.00;100963.02;1702757;83;20921;-78
2021/06/23 00:08:10;;;;;;;9.53;6.97;;;;;;;20.95;100.00;100962.02;1702886;84;20995;-78
2021/06/23 00:10:37;;;;;;;12.10;7.10;;;;;;;20.95;100.00;100967.30;1702620;84;21755;-78
2021/06/23 00:13:05;;;;;;;10.45;6.78;;;;;;;20.95;100.00;100965.97;1702711;83;20893;-80
2021/06/23 00:15:33;;;;;;;20.17;6.97;;;;;;;20.96;100.00;100964.48;1702597;84;21000;-80
2021/06/23 00:18:01;;;;;;;15.72;6.25;;;;;;;21.00;100.00;100963.18;1702798;84;20991;-83
2021/06/23 00:20:27;;;;;;;12.45;6.85;;;;;;;21.01;100.00;100963.52;1702790;84;20936;-84
2021/06/23 00:22:54;;;;;;;14.30;6.28;;;;;;;21.02;100.00;100960.39;1702917;84;21183;-78
2021/06/23 00:25:20;;;;;;;18.35;6.62;;;;;;;21.01;100.00;100962.20;1702887;84;21011;-85
2021/06/23 00:27:47;;;;;;;13.78;5.80;;;;;;;21.00;100.00;100951.30;1703159;84;20940;-78
2021/06/23 00:30:15;;;;;;;14.70;6.58;;;;;;;20.99;100.00;100948.36;1703047;84;20897;-77
2021/06/23 00:32:42;;;;;;;13.53;6.25;;;;;;;20.99;100.00;100943.08;1702593;84;21063;-79
2021/06/23 00:35:10;;;;;;;13.78;7.15;;;;;;;21.01;100.00;100947.69;1680774;84;21096;-78
2021/06/23 00:37:37;;;;;;;15.10;7.03;;;;;;;21.01;100.00;100938.45;1702566;84;20893;-80
2021/06/23 00:40:06;;;;;;;13.48;6.08;;;;;;;20.99;100.00;100940.93;1702663;84;20865;-83
2021/06/23 00:42:34;;;;;;;12.28;6.15;;;;;;;20.98;100.00;100945.86;1702620;84;21590;-76
2021/06/23 00:45:06;;;;;;;16.23;6.10;;;;;;;20.96;100.00;100944.69;1702960;84;20992;-81
2021/06/23 00:47:33;;;;;;;15.70;5.85;;;;;;;20.94;100.00;100947.16;1686362;83;21830;-77
2021/06/23 00:50:08;;;;;;;16.30;5.70;;;;;;;20.92;100.00;100942.55;1725178;83;21043;-83
2021/06/23 00:52:53;;;;;;;13.48;5.67;;;;;;;20.89;100.00;100941.07;1725665;83;20983;-80
2021/06/23 00:55:25;;;;;;;15.53;6.87;;;;;;;20.84;100.00;100942.02;1721497;83;20979;-85
2021/06/23 00:57:54;;;;;;;15.28;5.42;;;;;;;20.80;100.00;100936.76;1725277;83;21055;-77
2021/06/23 01:00:26;;;;;;;12.23;6.22;;;;;;;20.78;100.00;100941.34;1725264;83;21122;-80
2021/06/23 01:02:54;;;;;;;14.20;5.72;;;;;;;20.77;100.00;100938.37;1718589;83;21042;-80
2021/06/23 01:05:21;;;;;;;16.75;5.12;;;;;;;20.77;100.00;100943.64;1725098;83;21077;-81
2021/06/23 01:07:48;;;;;;;14.73;5.87;;;;;;;20.77;100.00;100937.57;1725362;83;21683;-84
2021/06/23 01:10:15;;;;;;;14.28;5.72;;;;;;;20.77;100.00;100937.05;1718397;83;21065;-82
2021/06/23 01:13:14;;;;;;;16.15;5.62;;;;;;;20.77;100.00;100929.66;1725253;83;21769;-80
2021/06/23 01:15:41;;;;;;;17.25;5.20;;;;;;;20.77;100.00;100933.61;1725167;83;20935;-78
2021/06/23 01:18:09;;;;;;;13.45;5.08;;;;;;;20.75;100.00;100932.44;1726046;83;20987;-78
2021/06/23 01:20:45;;;;;;;15.70;5.72;;;;;;;20.74;100.00;100926.82;1725603;83;20935;-78
2021/06/23 01:23:14;;;;;;;14.35;5.05;;;;;;;20.76;100.00;100926.67;1725833;83;21076;-82
2021/06/23 01:25:42;;;;;;;10.58;5.20;;;;;;;20.74;100.00;100921.55;1719362;83;21075;-82
2021/06/23 01:28:09;;;;;;;10.40;5.03;;;;;;;20.72;100.00;100924.85;1724723;83;20930;-79
2021/06/23 01:30:37;;;;;;;13.80;5.35;;;;;;;20.68;100.00;100926.14;1724906;83;20975;-79
2021/06/23 01:33:09;;;;;;;13.20;5.37;;;;;;;20.63;100.00;100924.98;1692201;83;21073;-81
2021/06/23 01:35:37;;;;;;;18.10;5.80;;;;;;;20.58;100.00;100928.11;1718588;83;20994;-79
2021/06/23 01:38:04;;;;;;;15.45;5.70;;;;;;;20.54;100.00;100936.00;1725222;83;21849;-81
2021/06/23 01:40:31;;;;;;;12.30;5.60;;;;;;;20.52;100.00;100927.41;1725015;83;20935;-81
2021/06/23 01:42:59;;;;;;;15.08;5.78;;;;;;;20.47;100.00;100923.94;1725267;83;21529;-79
2021/06/23 01:45:27;;;;;;;16.82;6.20;;;;;;;20.44;100.00;100929.53;1725187;83;20963;-78
2021/06/23 01:47:53;;;;;;;15.93;5.70;;;;;;;20.41;100.00;100931.17;1718438;83;21003;-81
2021/06/23 01:50:22;;;;;;;11.55;5.53;;;;;;;20.39;100.00;100931.00;1702918;84;21822;-82
2021/06/23 01:52:50;;;;;;;18.48;7.42;;;;;;;20.37;100.00;100932.45;1702524;84;20892;-79
2021/06/23 01:55:29;;;;;;;16.97;5.72;;;;;;;20.38;100.00;100930.66;1702923;84;21491;-77
2021/06/23 01:58:05;;;;;;;9.08;6.22;;;;;;;20.38;100.00;100936.75;1702812;83;20948;-79
2021/06/23 02:01:16;;;;;;;14.47;5.40;;;;;;;20.39;100.00;100931.00;1703023;83;20983;-81
2021/06/23 02:04:08;;;;;;;14.03;6.10;;;;;;;20.40;100.00;100929.51;1704182;84;21093;-77
2021/06/23 02:07:06;;;;;;;14.20;7.08;;;;;;;20.38;100.00;100922.75;1703019;82;21470;-81
2021/06/23 02:10:26;;;;;;;19.20;6.55;;;;;;;20.38;100.00;100917.47;1702781;84;20936;-78
2021/06/23 02:13:41;;;;;;;13.35;6.03;;;;;;;20.35;100.00;100913.84;1702732;84;20960;-76
2021/06/23 02:16:10;;;;;;;13.40;6.40;;;;;;;20.32;100.00;100920.26;1699630;84;21503;-78
2021/06/23 02:18:39;;;;;;;13.18;7.05;;;;;;;20.30;100.00;100917.42;1702898;83;21138;-80
2021/06/23 02:21:13;;;;;;;10.70;7.00;;;;;;;20.29;100.00;100917.94;1702906;84;20960;-79
2021/06/23 02:23:44;;;;;;;19.20;7.25;;;;;;;20.26;100.00;100918.71;1702732;84;21103;-77
2021/06/23 02:26:11;;;;;;;12.07;6.05;;;;;;;20.25;100.00;100918.36;1705044;82;21569;-80
2021/06/23 02:28:39;;;;;;;14.87;6.10;;;;;;;20.23;100.00;100924.30;1702778;84;21055;-80
2021/06/23 02:31:07;;;;;;;15.00;5.97;;;;;;;20.23;100.00;100926.41;1680819;84;21135;-80
2021/06/23 02:33:38;;;;;;;10.58;5.50;;;;;;;20.24;100.00;100927.24;1702627;83;20980;-79
2021/06/23 02:36:05;;;;;;;15.90;6.72;;;;;;;20.25;100.00;100928.91;1702667;84;20948;-80
2021/06/23 02:38:34;;;;;;;15.90;7.17;;;;;;;20.24;100.00;100922.80;1702704;84;21511;-78
2021/06/23 02:41:01;;;;;;;16.45;7.47;;;;;;;20.24;100.00;100937.30;1703021;84;21020;-77
2021/06/23 02:43:28;;;;;;;21.33;7.22;;;;;;;20.22;100.00;100941.91;1704286;84;21140;-79
2021/06/23 02:45:59;;;;;;;14.73;7.12;;;;;;;20.19;100.00;100944.86;1704214;84;21602;-85
2021/06/23 02:48:26;;;;;;;16.25;7.78;;;;;;;20.16;100.00;100945.66;1702728;83;21051;-78
2021/06/23 02:51:22;;;;;;;18.92;7.53;;;;;;;20.13;100.00;100948.13;1702961;83;21613;-77
2021/06/23 02:53:54;;;;;;;18.52;7.28;;;;;;;20.10;100.00;100944.48;1702322;83;21529;-80
2021/06/23 02:56:23;;;;;;;17.52;7.90;;;;;;;20.09;100.00;100953.36;1703109;83;21127;-77
2021/06/23 02:58:50;;;;;;;15.63;7.65;;;;;;;20.06;100.00;100951.87;1702812;84;20998;-78
2021/06/23 03:01:18;;;;;;;14.80;7.83;;;;;;;20.08;100.00;100960.92;1702697;83;21015;-79
2021/06/23 03:03:46;;;;;;;13.40;8.10;;;;;;;20.08;100.00;100958.28;1702704;84;21165;-79
2021/06/23 03:06:13;;;;;;;16.82;8.40;;;;;;;20.09;100.00;100966.53;1703050;84;21487;-77
2021/06/23 03:08:41;;;;;;;15.93;7.72;;;;;;;20.11;100.00;100965.05;1702761;83;21132;-76
2021/06/23 03:11:10;;;;;;;15.53;7.78;;;;;;;20.14;100.00;100963.41;1702796;83;21025;-80
2021/06/23 03:13:40;;;;;;;22.05;7.90;;;;;;;20.15;100.00;100963.76;1702710;83;21063;-79
2021/06/23 03:16:17;;;;;;;16.85;8.18;;;;;;;20.17;100.00;100965.73;1703167;83;20960;-80
2021/06/23 03:18:45;;;;;;;18.95;7.58;;;;;;;20.18;100.00;100972.67;1702585;83;21082;-78
2021/06/23 03:21:12;;;;;;;16.00;7.75;;;;;;;20.20;100.00;100973.36;1703103;84;21119;-80
2021/06/23 03:23:44;;;;;;;18.15;7.70;;;;;;;20.21;100.00;100974.99;1702588;84;20928;-80
2021/06/23 03:26:11;;;;;;;16.27;7.80;;;;;;;20.22;100.00;100970.06;1681150;84;20980;-80
2021/06/23 03:28:40;;;;;;;15.95;7.30;;;;;;;20.25;100.00;100964.48;1702978;83;21095;-80
2021/06/23 03:31:07;;;;;;;16.97;7.28;;;;;;;20.26;100.00;100961.70;1680849;84;21000;-80
2021/06/23 03:33:37;;;;;;;16.15;8.15;;;;;;;20.29;100.00;100961.91;1702740;84;21132;-80
2021/06/23 03:36:12;;;;;;;14.33;6.87;;;;;;;20.31;100.00;100967.36;1703088;82;20984;-80
2021/06/23 03:38:38;;;;;;;19.15;7.47;;;;;;;20.36;100.00;100965.55;1702856;84;21114;-80
2021/06/23 03:41:06;;;;;;;14.50;6.47;;;;;;;20.39;100.00;100967.38;1703031;84;20873;-80
2021/06/23 03:43:33;;;;;;;14.45;5.67;;;;;;;20.44;100.00;100968.25;1702941;84;20900;-80
2021/06/23 03:46:00;;;;;;;12.45;5.67;;;;;;;20.47;100.00;100963.97;1704380;83;21167;-79
2021/06/23 03:48:27;;;;;;;12.60;5.37;;;;;;;20.51;100.00;100960.05;1705602;83;20935;-79
2021/06/23 03:50:55;;;;;;;13.53;5.95;;;;;;;20.55;100.00;100964.83;1712405;83;21008;-79
2021/06/23 03:53:22;;;;;;;16.15;5.25;;;;;;;20.58;100.00;100963.71;1712760;82;21584;-80
2021/06/23 03:55:50;;;;;;;13.53;5.83;;;;;;;20.62;100.00;100957.59;1712967;83;21080;-78
2021/06/23 03:58:17;;;;;;;10.78;5.70;;;;;;;20.66;100.00;100965.05;1712670;83;21127;-77
2021/06/23 04:00:44;;;;;;;10.13;5.50;;;;;;;20.72;100.00;100974.95;1712531;83;21007;-78
2021/06/23 04:03:22;;;;;;;18.65;5.90;;;;;;;20.81;100.00;100982.40;1708533;83;21643;-78
2021/06/23 04:05:51;;;;;;;16.20;6.12;;;;;;;20.87;100.00;100985.72;1711587;83;21525;-79
2021/06/23 04:08:18;;;;;;;14.18;5.90;;;;;;;20.91;100.00;100983.94;1713101;83;21486;-84
2021/06/23 04:10:45;;;;;;;15.03;5.60;;;;;;;20.94;100.00;100984.93;1713080;83;21155;-78
2021/06/23 04:13:12;;;;;;;13.15;5.35;;;;;;;20.99;100.00;100998.97;1712694;83;21558;-79
2021/06/23 04:15:39;;;;;;;11.43;5.28;;;;;;;21.05;100.00;100991.73;1683061;83;21027;-85
2021/06/23 04:18:08;;;;;;;17.05;6.12;;;;;;;21.12;100.00;101002.51;1712924;82;20977;-84
2021/06/23 04:20:35;;;;;;;12.70;5.87;;;;;;;21.13;100.00;101002.33;1712727;83;21447;-80
2021/06/23 04:23:06;;;;;;;18.92;6.12;;;;;;;21.16;100.00;101004.64;1712581;82;21141;-79
2021/06/23 04:25:35;;;;;;;14.93;6.50;;;;;;;21.20;100.00;101005.98;1712499;83;21006;-82
2021/06/23 04:28:02;;;;;;;16.67;5.85;;;;;;;21.23;100.00;101006.98;1705949;83;21242;-80
2021/06/23 04:30:29;;;;;;;11.60;6.50;;;;;;;21.26;100.00;101010.61;1712769;82;21102;-78
2021/06/23 04:32:57;;;;;;;14.53;6.50;;;;;;;21.31;100.00;101010.14;1712588;83;20892;-77
2021/06/23 04:35:25;;;;;;;17.12;5.78;;;;;;;21.35;100.00;101012.77;1712090;83;21122;-80
2021/06/23 04:37:52;;;;;;;18.45;6.72;;;;;;;21.39;100.00;101009.66;1712804;83;20943;-80
2021/06/23 04:40:20;;;;;;;15.53;6.15;;;;;;;21.45;100.00;101016.09;1712675;83;20987;-83
2021/06/23 04:42:48;;;;;;;15.72;6.28;;;;;;;21.50;100.00;101016.45;1712611;83;20963;-81
2021/06/23 04:45:15;;;;;;;21.20;7.00;;;;;;;21.55;100.00;101014.96;1712731;82;21130;-75
2021/06/23 04:47:45;;;;;;;11.93;6.67;;;;;;;21.60;100.00;101019.25;1712316;83;21147;-77
2021/06/23 04:50:14;;;;;;;12.75;6.30;;;;;;;21.66;100.00;101019.11;1730877;82;20930;-80
2021/06/23 04:52:42;;;;;;;17.02;6.97;;;;;;;21.71;100.00;101029.16;1732451;82;20943;-81
2021/06/23 04:55:16;;;;;;;24.55;7.45;;;;;;;21.76;100.00;101027.67;1733482;82;21001;-79
2021/06/23 04:57:40;;;;;;;13.78;6.67;;;;;;;21.81;100.00;101028.02;1733179;82;21056;-80
2021/06/23 05:00:08;;;;;;;14.35;6.10;;;;;;;21.86;100.00;101027.02;1733333;82;21135;-81
2021/06/23 05:02:36;;;;;;;16.50;6.97;;;;;;;21.93;100.00;101036.47;1733342;82;20963;-78
2021/06/23 05:05:03;;;;;;;13.08;6.25;;;;;;;21.96;100.00;101033.49;1733270;82;21006;-82
2021/06/23 05:07:30;;;;;;;12.28;6.83;;;;;;;22.01;100.00;101041.77;1733457;82;21031;-78
2021/06/23 05:09:57;;;;;;;18.12;6.70;;;;;;;22.08;100.00;101042.23;1733468;82;20935;-82
2021/06/23 05:12:28;;;;;;;11.55;6.33;;;;;;;22.14;100.00;101045.54;1733401;82;21966;-80
2021/06/23 05:14:53;;;;;;;13.72;5.95;;;;;;;22.21;100.00;101050.19;1733197;82;21604;-80
2021/06/23 05:17:19;;;;;;;18.27;6.55;;;;;;;22.27;100.00;101044.23;1733407;81;20970;-81
2021/06/23 05:19:46;;;;;;;15.15;6.00;;;;;;;22.34;100.00;101047.83;1733685;82;20970;-86
2021/06/23 05:22:13;;;;;;;11.12;5.45;;;;;;;22.40;100.00;101044.02;1733404;82;21006;-81
2021/06/23 05:24:40;;;;;;;13.50;6.10;;;;;;;22.46;100.00;101046.51;1733434;82;21773;-85
2021/06/23 05:27:08;;;;;;;12.07;5.62;;;;;;;22.51;100.00;101042.84;1733419;82;20950;-79
2021/06/23 05:29:36;;;;;;;24.02;5.75;;;;;;;22.57;100.00;101041.67;1733571;82;20951;-79
2021/06/23 05:32:03;;;;;;;16.70;5.95;;;;;;;22.65;100.00;101044.81;1733415;82;20951;-77
2021/06/23 05:34:31;;;;;;;14.63;6.15;;;;;;;22.71;100.00;101045.97;1733545;82;21012;-84
2021/06/23 05:36:58;;;;;;;15.88;6.78;;;;;;;22.78;100.00;101042.98;1733451;82;21099;-83
2021/06/23 05:39:25;;;;;;;18.27;6.20;;;;;;;22.82;100.00;101043.77;1733486;82;21002;-82
2021/06/23 05:41:52;;;;;;;14.28;5.70;;;;;;;22.89;100.00;101040.77;1734066;81;20942;-80
2021/06/23 05:44:19;;;;;;;15.53;5.50;;;;;;;22.96;100.00;101041.74;1733371;82;21072;-82
2021/06/23 05:46:47;;;;;;;15.88;6.35;;;;;;;23.04;100.00;101046.98;1733353;82;21082;-82
2021/06/23 05:49:20;;;;;;;12.65;5.40;;;;;;;23.09;100.00;101047.31;1695656;84;21145;-84
2021/06/23 05:51:48;;;;;;;17.32;6.33;;;;;;;23.13;100.00;101040.66;1708174;83;20967;-84
2021/06/23 05:54:15;;;;;;;15.93;6.90;;;;;;;23.18;100.00;101041.47;1707698;84;20900;-84
2021/06/23 05:56:42;;;;;;;15.48;5.53;;;;;;;23.23;99.81;101046.25;1708674;83;20916;-87
2021/06/23 05:59:29;;;;;;;15.38;6.12;;;;;;;23.26;99.49;101038.80;1709694;83;20861;-91
2021/06/23 06:02:00;;;;;;;11.43;5.60;;;;;;;23.31;99.58;101040.91;1685372;83;21027;-84
2021/06/23 06:04:27;;;;;;;10.08;5.28;;;;;;;23.38;99.84;101035.23;1678059;84;21561;-84
2021/06/23 06:07:01;;;;;;;14.53;6.35;;;;;;;23.45;99.49;101040.20;1680421;84;20999;-89
2021/06/23 06:09:28;;;;;;;14.98;5.85;;;;;;;23.52;98.85;101045.92;1680070;84;20923;-87
2021/06/23 06:12:01;;;;;;;19.05;6.60;;;;;;;23.59;98.92;101049.52;1679499;84;21119;-87
2021/06/23 06:14:30;;;;;;;17.80;6.62;;;;;;;23.68;99.09;101059.06;1679846;84;21319;-81
2021/06/23 06:17:04;;;;;;;18.75;6.42;;;;;;;23.75;97.85;101057.86;1679730;84;20984;-88
2021/06/23 06:19:45;;;;;;;15.10;6.30;;;;;;;23.83;95.59;101060.96;1697199;83;21510;-90
2021/06/23 06:22:12;;;;;;;20.80;5.78;;;;;;;23.92;94.85;101064.70;1693888;84;21115;-86
2021/06/23 06:28:02;;;;;;;17.73;5.70;;;;;;;24.05;92.33;101056.97;1707479;83;21151;-86
2021/06/23 06:30:29;;;;;;;20.32;5.58;;;;;;;24.10;92.40;101056.41;1707228;83;21538;-86
2021/06/23 06:33:15;;;;;;;;;;;;;;;;;;;;;
2021/06/23 06:35:37;;;;;;;19.52;6.15;;;;;;;24.20;92.47;101059.67;1683826;84;21063;-88
2021/06/23 06:38:12;;;;;;;16.80;5.50;;;;;;;24.26;92.70;101063.43;1689360;84;21052;-89
2021/06/23 06:40:39;;;;;;;13.13;6.12;;;;;;;24.31;92.08;101065.05;1708006;83;21130;-89
2021/06/23 06:43:16;;;;;;;13.10;5.17;;;;;;;24.38;93.33;101063.34;1706531;83;20861;-87
2021/06/23 06:45:50;;;;;;;15.43;5.67;;;;;;;24.44;91.35;101067.38;1708074;83;21039;-89
2021/06/23 06:48:19;;;;;;;11.40;5.60;;;;;;;24.51;89.25;101072.80;1707721;84;20953;-84
2021/06/23 06:50:51;;;;;;;12.82;5.83;;;;;;;24.55;88.34;101069.61;1703629;83;21066;-82
2021/06/23 06:53:23;;;;;;;12.95;5.65;;;;;;;24.62;88.19;101078.50;1701621;83;21125;-83
2021/06/23 06:55:52;;;;;;;47.00;7.85;;;;;;;24.67;88.29;101079.26;1702956;83;20918;-80
2021/06/23 06:58:30;;;;;;;35.17;7.37;;;;;;;24.73;90.24;101079.36;1702808;83;20976;-83
2021/06/23 07:01:16;;;;;;;;;;;;;;;;;;;;;
2021/06/23 07:03:37;;;;;;;33.63;6.57;;;;;;;24.85;95.82;101074.96;1701781;83;21483;-79
2021/06/23 07:06:05;;;;;;;13.05;6.05;;;;;;;24.90;96.37;101077.87;1702696;83;21919;-81
2021/06/23 07:08:35;;;;;;;13.75;5.83;;;;;;;24.95;94.13;101082.15;1702811;84;21592;-83
2021/06/23 07:11:21;;;;;;;33.98;8.30;;;;;;;24.99;94.98;101077.59;1698375;84;21008;-82
2021/06/23 07:13:44;;;;;;;14.40;6.30;;;;;;;25.01;96.26;101082.23;1701163;83;21606;-84
2021/06/23 07:16:16;;;;;;;57.05;11.12;;;;;;;25.02;95.98;101073.23;1703202;84;21498;-87
2021/06/23 07:18:48;;;;;;;30.80;7.72;;;;;;;24.88;95.47;101082.55;1702562;84;21082;-84
2021/06/23 07:21:20;;;;;;;40.25;8.80;;;;;;;24.75;96.93;101081.84;1702733;84;21583;-82
2021/06/23 07:23:53;;;;;;;41.13;9.60;;;;;;;24.80;97.21;101083.43;1702949;83;20975;-88
2021/06/23 07:26:22;;;;;;;17.60;6.90;;;;;;;24.85;97.42;101081.59;1702848;83;21046;-83
2021/06/23 07:28:52;;;;;;;24.87;7.58;;;;;;;24.97;96.13;101080.95;1703093;83;21434;-81
2021/06/23 07:31:26;;;;;;;19.90;7.05;;;;;;;25.06;95.72;101081.66;1703326;83;21059;-83
2021/06/23 07:33:53;;;;;;;15.65;6.70;;;;;;;25.20;95.91;101085.64;1702532;83;20885;-79
2021/06/23 07:36:35;;;;;;;17.98;6.15;;;;;;;25.32;93.76;101082.49;1703340;82;20916;-77
2021/06/23 07:39:12;;;;;;;13.55;5.53;;;;;;;25.34;93.61;101083.95;1703437;84;21028;-84
2021/06/23 07:41:43;;;;;;;9.53;5.67;;;;;;;25.40;93.80;101078.41;1702880;83;20949;-86
2021/06/23 07:44:12;;;;;;;11.57;5.87;;;;;;;25.37;93.50;101083.57;1703305;84;21564;-85
2021/06/23 07:46:55;;;;;;;15.30;5.58;;;;;;;25.40;93.47;101082.40;1702778;83;20984;-86
2021/06/23 07:49:26;;;;;;;9.93;6.05;;;;;;;25.47;93.99;101079.28;1703374;83;21121;-82
2021/06/23 07:52:02;;;;;;;11.73;5.85;;;;;;;25.56;93.57;101079.55;1702996;83;20932;-83
2021/06/23 08:10:43;;;;;;;15.90;6.28;;;;;;;26.03;89.17;101081.13;1703110;84;21139;-82
2021/06/23 08:13:12;;;;;;;10.95;5.20;;;;;;;26.01;86.69;101084.97;1702254;83;21574;-84
2021/06/23 08:15:45;;;;;;;21.05;6.05;;;;;;;25.93;85.76;101077.14;1701917;84;20983;-85
2021/06/23 08:18:14;;;;;;;10.48;4.80;;;;;;;25.87;85.77;101080.56;1702384;84;20983;-81
2021/06/23 08:20:42;;;;;;;13.15;6.10;;;;;;;25.92;86.19;101082.95;1704910;82;20972;-76
2021/06/23 08:23:11;;;;;;;16.42;5.83;;;;;;;25.99;85.39;101088.34;1654887;85;21146;-85
2021/06/23 08:25:42;;;;;;;14.03;5.53;;;;;;;26.05;84.56;101090.23;1702367;83;20859;-85
2021/06/23 08:28:15;;;;;;;14.38;5.78;;;;;;;26.09;83.16;101089.67;1699129;84;21024;-79
2021/06/23 08:30:42;;;;;;;11.60;4.97;;;;;;;26.12;83.43;101090.61;1679074;84;21056;-86
2021/06/23 08:33:11;;;;;;;11.53;5.22;;;;;;;26.18;83.09;101085.88;1700877;84;20982;-78
2021/06/23 08:35:41;;;;;;;13.98;6.05;;;;;;;26.30;82.64;101096.81;1700639;84;21513;-85
2021/06/23 08:38:09;;;;;;;12.50;5.10;;;;;;;26.33;81.63;101089.77;1699037;84;20981;-81
2021/06/23 08:40:36;;;;;;;17.85;6.08;;;;;;;26.42;82.70;101095.26;1700596;83;21516;-87
2021/06/23 08:43:03;;;;;;;10.08;5.12;;;;;;;26.51;81.75;101095.45;1700745;84;21026;-85
2021/06/23 08:45:33;;;;;;;11.88;5.72;;;;;;;26.60;81.84;101097.45;1700922;84;21180;-89
2021/06/23 08:48:07;;;;;;;11.40;4.92;;;;;;;26.70;81.85;101092.09;1699937;84;21137;-85
2021/06/23 08:50:48;;;;;;;;;;;;;;;;;;;;;
2021/06/23 08:53:17;;;;;;;13.58;5.87;;;;;;;26.86;79.83;101092.32;1685370;83;21001;-82
2021/06/23 08:55:47;;;;;;;20.25;6.15;;;;;;;26.94;77.98;101092.64;1723630;83;21000;-89
2021/06/23 08:58:14;;;;;;;8.60;5.10;;;;;;;27.03;78.77;101089.62;1723746;83;20953;-83
2021/06/23 09:00:42;;;;;;;12.33;5.25;;;;;;;27.20;78.00;101094.94;1723615;83;21143;-88
2021/06/23 09:03:09;;;;;;;11.20;4.80;;;;;;;27.33;78.28;101092.83;1723265;83;20886;-86
2021/06/23 09:05:51;;;;;;;15.58;5.00;;;;;;;27.47;76.34;101089.73;1713888;83;21005;-89
2021/06/23 09:08:34;;;;;;;12.47;5.00;;;;;;;27.60;76.41;101089.77;1712944;83;21013;-86
2021/06/23 09:11:15;;;;;;;15.35;5.85;;;;;;;27.75;75.47;101086.41;1723249;83;21550;-87
2021/06/23 09:13:47;;;;;;;16.57;5.70;;;;;;;27.77;75.46;101083.84;1723170;83;21116;-87
2021/06/23 09:16:12;;;;;;;18.23;6.65;;;;;;;27.79;75.84;101092.45;1723011;83;20944;-81
2021/06/23 09:18:42;;;;;;;52.55;11.43;;;;;;;27.90;76.76;101087.55;1712918;82;21041;-89
2021/06/23 09:21:19;;;;;;;96.02;15.48;;;;;;;27.88;74.25;101094.44;1723299;83;21020;-87
2021/06/23 09:23:57;;;;;;;46.95;11.22;;;;;;;27.73;74.83;101097.77;1713746;83;20902;-81
2021/06/23 09:26:36;;;;;;;15.03;6.22;;;;;;;27.74;75.51;101092.25;1723662;83;21397;-83
2021/06/23 09:29:16;;;;;;;15.70;6.22;;;;;;;27.84;74.01;101093.19;1723474;83;20997;-79
2021/06/23 09:32:04;;;;;;;24.65;6.20;;;;;;;27.77;72.35;101097.68;1713816;83;21139;-82
2021/06/23 09:34:42;;;;;;;20.27;5.50;;;;;;;27.62;73.24;101094.37;1713137;83;21511;-84
2021/06/23 09:37:33;;;;;;;19.87;5.85;;;;;;;27.72;73.82;101099.64;1713377;83;21012;-81
2021/06/23 09:40:16;;;;;;;16.77;5.95;;;;;;;27.93;72.87;101092.47;1723832;83;21115;-83
2021/06/23 09:42:50;;;;;;;18.77;5.30;;;;;;;28.08;71.20;101085.94;1714127;83;20984;-81
2021/06/23 09:45:27;;;;;;;24.00;5.87;;;;;;;28.27;71.02;101082.98;1690774;83;20944;-87
2021/06/23 09:48:11;;;;;;;17.95;4.95;;;;;;;28.43;69.86;101081.73;1722737;82;21064;-91
2021/06/23 09:50:40;;;;;;;15.48;5.50;;;;;;;28.65;69.05;101083.13;1718313;83;21031;-83
2021/06/23 09:53:12;;;;;;;18.35;6.03;;;;;;;28.70;68.83;101083.34;1713228;83;21499;-87
2021/06/23 09:55:47;;;;;;;11.57;4.70;;;;;;;28.68;69.30;101074.73;1684548;83;37655;-87
2021/06/23 09:58:20;;;;;;;16.27;5.10;;;;;;;28.65;69.98;101085.80;1710756;83;20894;-86
2021/06/23 10:01:12;;;;;;;18.05;5.25;;;;;;;28.64;69.42;101081.48;1708714;83;20964;-82
2021/06/23 10:04:04;;;;;;;13.03;4.53;;;;;;;28.77;69.37;101082.82;1712283;83;21539;-79
2021/06/23 10:06:39;;;;;;;14.93;4.77;;;;;;;29.17;67.52;101084.31;1711471;83;21995;-83
2021/06/23 10:09:24;;;;;;;15.88;5.83;;;;;;;29.44;67.56;101082.38;1711884;83;21500;-82
2021/06/23 10:12:05;;;;;;;16.35;4.75;;;;;;;29.71;65.45;101074.98;1711710;83;20929;-86
2021/06/23 10:14:45;;;;;;;17.60;4.78;;;;;;;29.89;65.34;101076.45;1710872;83;21100;-82
2021/06/23 10:17:18;;;;;;;14.83;5.10;;;;;;;30.07;66.01;101078.35;1710700;83;20894;-87
2021/06/23 10:19:49;;;;;;;18.57;5.55;;;;;;;30.34;62.84;101074.42;1642627;85;21544;-86
2021/06/23 10:22:17;;;;;;;19.55;5.47;;;;;;;30.29;62.87;101075.06;1660478;86;21442;-80
2021/06/23 10:24:51;;;;;;;19.62;5.95;;;;;;;30.20;62.61;101075.05;1661770;86;20924;-92
2021/06/23 10:27:20;;;;;;;16.30;4.90;;;;;;;30.17;62.48;101071.48;1638150;85;20936;-80
2021/06/23 10:29:54;;;;;;;16.82;4.70;;;;;;;30.16;63.18;101081.88;1660418;86;21050;-89
2021/06/23 10:32:20;;;;;;;14.53;5.08;;;;;;;29.95;62.76;101078.25;1660423;85;21131;-86
2021/06/23 10:34:47;;;;;;;20.43;4.83;;;;;;;29.69;63.58;101069.04;1660342;84;21019;-84
2021/06/23 10:37:15;;;;;;;28.73;7.17;;;;;;;29.37;64.80;101078.91;1659587;86;21121;-83
2021/06/23 10:39:45;;;;;;;95.22;16.32;;;;;;;29.26;65.80;101074.25;1659223;86;21157;-81
2021/06/23 10:42:11;;;;;;;51.73;10.32;;;;;;;29.22;65.73;101071.66;1659395;86;21072;-80
2021/06/23 10:44:42;;;;;;;24.90;5.62;;;;;;;29.18;66.62;101078.45;1659968;86;21035;-83
2021/06/23 10:47:12;;;;;;;35.75;8.00;;;;;;;29.24;65.21;101070.44;1632065;88;21609;-81
2021/06/23 10:49:50;;;;;;;19.50;5.00;;;;;;;29.25;65.93;101075.27;1610187;87;21049;-80
2021/06/23 10:52:27;;;;;;;20.80;5.80;;;;;;;29.23;66.01;101073.31;1650321;86;21040;-79
2021/06/23 10:55:01;;;;;;;18.15;5.42;;;;;;;29.13;65.86;101076.44;1650305;87;21079;-82
2021/06/23 10:57:31;;;;;;;18.73;5.15;;;;;;;29.17;66.86;101074.95;1688029;85;21081;-84
2021/06/23 11:00:03;;;;;;;18.35;5.95;;;;;;;29.31;66.58;101068.55;1695176;84;20882;-80
2021/06/23 11:02:37;;;;;;;23.27;5.65;;;;;;;29.48;66.13;101066.20;1691081;84;21052;-86
2021/06/23 11:05:14;;;;;;;25.75;5.25;;;;;;;29.63;65.31;101067.23;1656147;86;21662;-85
2021/06/23 11:07:49;;;;;;;13.40;5.03;;;;;;;29.74;65.73;101062.54;1688307;85;20973;-93
2021/06/23 11:10:26;;;;;;;20.95;5.53;;;;;;;29.70;64.19;101060.81;1656575;86;21128;-82
2021/06/23 11:12:53;;;;;;;17.07;5.40;;;;;;;29.66;64.58;101058.27;1686723;85;21052;-81
2021/06/23 11:15:36;;;;;;;19.25;5.28;;;;;;;29.72;62.73;101057.39;1694736;84;21047;-80
2021/06/23 11:18:25;;;;;;;21.02;5.83;;;;;;;29.75;63.67;101054.28;1656691;86;20928;-86
2021/06/23 11:21:05;;;;;;;18.60;5.35;;;;;;;29.91;62.08;101052.95;1687760;85;21049;-79
2021/06/23 11:24:01;;;;;;;15.58;5.20;;;;;;;30.13;61.86;101053.38;1693611;84;21114;-80
2021/06/23 11:26:38;;;;;;;20.97;5.78;;;;;;;30.61;60.74;101049.02;1669557;84;20993;-85
2021/06/23 11:29:21;;;;;;;20.32;5.08;;;;;;;30.99;59.66;101039.94;1657048;86;21008;-84
2021/06/23 11:31:54;;;;;;;17.45;4.83;;;;;;;31.12;59.17;101037.09;1685829;85;20985;-84
2021/06/23 11:34:46;;;;;;;18.10;4.78;;;;;;;31.15;59.07;101036.12;1657283;86;21046;-79
2021/06/23 11:37:16;;;;;;;16.20;4.90;;;;;;;31.20;58.63;101038.13;1687818;85;21114;-84
2021/06/23 11:39:43;;;;;;;23.60;4.60;;;;;;;31.18;57.53;101037.00;1696068;84;21063;-90
2021/06/23 11:42:12;;;;;;;20.40;5.15;;;;;;;31.35;58.27;101038.02;1632878;86;21074;-85
2021/06/23 11:44:46;;;;;;;21.00;5.20;;;;;;;32.03;55.51;101034.91;1687110;85;21049;-87
2021/06/23 11:47:13;;;;;;;27.07;6.37;;;;;;;31.85;55.70;101031.79;1687254;84;21103;-82
2021/06/23 11:49:42;;;;;;;22.35;5.05;;;;;;;31.78;57.54;101029.73;1655335;86;21122;-90
2021/06/23 11:52:10;;;;;;;16.65;5.35;;;;;;;31.62;57.21;101034.45;1650567;86;21672;-87
2021/06/23 11:54:40;;;;;;;13.60;4.55;;;;;;;31.61;57.83;101026.63;1651402;86;21009;-87
2021/06/23 11:57:07;;;;;;;18.48;5.20;;;;;;;31.36;56.30;101035.64;1686507;84;21053;-80